Time;durP1;ratioP1;P1;durP2;ratioP2;P2;SDS_P1;SDS_P2;PMS_P1;PMS_P2;Temp;Humidity;BMP_temperature;BMP_pressure;BME280_temperature;BME280_humidity;BME280_pressure;Samples;Min_cycle;Max_cycle;Signal;HPM_P1;HPM_P2
2021/01/28 00:00:03;;;;;;;0.28;0.28;;;12.10;99.90;;;;;;5068000;28;20074;-88
2021/01/28 00:02:29;;;;;;;0.20;0.20;;;12.10;99.90;;;;;;5067977;28;20481;-88
2021/01/28 00:04:54;;;;;;;0.10;0.10;;;12.10;99.90;;;;;;5068164;28;20035;-88
2021/01/28 00:07:20;;;;;;;0.20;0.20;;;12.20;99.90;;;;;;5067565;28;20029;-88
2021/01/28 00:09:47;;;;;;;2.00;0.75;;;12.20;99.90;;;;;;5067263;28;20024;-88
2021/01/28 00:12:14;;;;;;;0.10;0.10;;;12.30;99.90;;;;;;5068031;28;20746;-88
2021/01/28 00:14:41;;;;;;;0.43;0.43;;;12.30;99.90;;;;;;5067605;28;20743;-88
2021/01/28 00:17:07;;;;;;;;;;;12.30;99.90;;;;;;5068083;28;20051;-88
2021/01/28 00:19:33;;;;;;;0.30;0.30;;;12.30;99.90;;;;;;5067985;28;20669;-88
2021/01/28 00:21:59;;;;;;;0.30;0.30;;;12.30;99.90;;;;;;5049553;28;20451;-88
2021/01/28 00:24:24;;;;;;;0.10;0.10;;;12.30;99.90;;;;;;5067957;28;20033;-88
2021/01/28 00:26:50;;;;;;;0.20;0.20;;;12.30;99.90;;;;;;5068024;28;20021;-88
2021/01/28 00:29:16;;;;;;;0.60;0.60;;;12.30;99.90;;;;;;5068915;28;20047;-88
2021/01/28 00:31:42;;;;;;;0.20;0.20;;;12.30;99.90;;;;;;5067934;28;20504;-88
2021/01/28 00:34:08;;;;;;;0.95;0.95;;;12.30;99.90;;;;;;5067618;28;20035;-88
2021/01/28 00:36:33;;;;;;;0.20;0.20;;;12.30;99.90;;;;;;5068033;28;20023;-88
2021/01/28 00:38:59;;;;;;;0.43;0.38;;;12.40;99.90;;;;;;5066563;28;20052;-88
2021/01/28 00:41:27;;;;;;;0.30;0.30;;;12.40;99.90;;;;;;5067919;28;20028;-88
2021/01/28 00:43:54;;;;;;;0.20;0.20;;;12.40;99.90;;;;;;5067316;28;20086;-88
2021/01/28 00:46:21;;;;;;;;;;;12.40;99.90;;;;;;5069240;28;20028;-88
2021/01/28 00:48:49;;;;;;;;;;;12.30;99.90;;;;;;5053914;28;19987;-88
2021/01/28 00:51:17;;;;;;;0.10;0.10;;;12.30;99.90;;;;;;5053084;28;19912;-88
2021/01/28 00:53:43;;;;;;;0.10;0.10;;;12.30;99.90;;;;;;5071003;28;20035;-88
2021/01/28 00:56:10;;;;;;;0.10;0.10;;;12.30;99.90;;;;;;5071146;28;20102;-88
2021/01/28 00:58:35;;;;;;;0.20;0.20;;;12.30;99.90;;;;;;5071772;28;20039;-88
2021/01/28 01:01:02;;;;;;;0.15;0.15;;;12.30;99.90;;;;;;5070054;28;20025;-88
2021/01/28 01:03:28;;;;;;;0.10;0.10;;;12.30;99.90;;;;;;5052530;28;20040;-88
2021/01/28 01:05:55;;;;;;;32.80;2.65;;;12.30;99.90;;;;;;5071198;28;20063;-89
2021/01/28 01:08:26;;;;;;;0.25;0.25;;;12.30;99.90;;;;;;5070994;28;20032;-89
2021/01/28 01:11:03;;;;;;;0.17;0.17;;;12.20;99.90;;;;;;5068982;28;20036;-89
2021/01/28 01:13:34;;;;;;;0.90;0.88;;;12.20;99.90;;;;;;5042213;28;20490;-89
2021/01/28 01:16:02;;;;;;;40.70;3.28;;;12.30;99.90;;;;;;5052841;28;20024;-89
2021/01/28 01:18:32;;;;;;;0.38;0.38;;;12.20;99.90;;;;;;5052430;28;20024;-89
2021/01/28 01:21:01;;;;;;;1.27;0.75;;;12.20;99.90;;;;;;5048984;28;20629;-89
2021/01/28 01:23:28;;;;;;;0.70;0.55;;;12.20;99.90;;;;;;5050198;28;20406;-89
2021/01/28 01:25:54;;;;;;;0.10;0.10;;;12.20;99.90;;;;;;5051021;28;20033;-89
2021/01/28 01:28:21;;;;;;;4.80;3.00;;;12.20;99.90;;;;;;5059703;28;20029;-89
2021/01/28 01:30:47;;;;;;;0.10;0.10;;;12.20;99.90;;;;;;5051060;28;20040;-89
2021/01/28 01:33:12;;;;;;;0.35;0.35;;;12.20;99.90;;;;;;5049513;28;20032;-89
2021/01/28 01:35:38;;;;;;;1.70;0.95;;;12.20;99.90;;;;;;5049529;28;20025;-89
2021/01/28 01:38:04;;;;;;;0.20;0.20;;;12.30;99.90;;;;;;5052169;28;20098;-88
2021/01/28 01:40:33;;;;;;;1.98;0.90;;;12.20;99.90;;;;;;5056379;28;20102;-89
2021/01/28 01:43:04;;;;;;;0.20;0.20;;;12.20;99.90;;;;;;5050703;28;20104;-89
2021/01/28 01:45:37;;;;;;;1.08;0.82;;;12.30;99.90;;;;;;5049037;28;20390;-89
2021/01/28 01:48:23;;;;;;;0.50;0.40;;;12.40;99.90;;;;;;5050224;28;20202;-89
2021/01/28 01:51:04;;;;;;;0.30;0.30;;;12.50;99.90;;;;;;5041944;28;20021;-89
2021/01/28 01:53:38;;;;;;;1.38;0.88;;;12.60;99.90;;;;;;5045408;28;20031;-89
2021/01/28 01:56:16;;;;;;;1.25;0.75;;;12.70;99.90;;;;;;5048384;28;20035;-89
2021/01/28 01:59:12;;;;;;;0.10;0.10;;;12.70;99.90;;;;;;5047473;28;20021;-89
2021/01/28 02:01:45;;;;;;;;;;;12.60;99.90;;;;;;5043848;28;20029;-89
2021/01/28 02:04:12;;;;;;;0.40;0.40;;;12.70;99.90;;;;;;5049111;28;19913;-89
2021/01/28 02:06:41;;;;;;;0.45;0.45;;;12.70;99.90;;;;;;5050029;28;20028;-88
2021/01/28 02:09:10;;;;;;;0.20;0.20;;;12.80;99.90;;;;;;5048374;28;20571;-89
2021/01/28 02:11:38;;;;;;;0.20;0.20;;;12.80;99.90;;;;;;5049276;28;20037;-89
2021/01/28 02:14:10;;;;;;;0.10;0.10;;;12.90;99.90;;;;;;5048487;28;20033;-89
2021/01/28 02:16:52;;;;;;;0.55;0.55;;;12.90;99.90;;;;;;5050120;28;20025;-89
2021/01/28 02:19:53;;;;;;;0.28;0.28;;;13.00;99.90;;;;;;5044972;28;20036;-89
2021/01/28 02:22:30;;;;;;;0.10;0.10;;;13.00;99.90;;;;;;5067498;28;20017;-89
2021/01/28 02:25:19;;;;;;;1.05;0.95;;;13.00;99.90;;;;;;5064800;28;20055;-89
2021/01/28 02:27:45;;;;;;;0.32;0.32;;;13.00;99.90;;;;;;5059822;28;20048;-89
2021/01/28 02:30:20;;;;;;;0.35;0.35;;;13.00;99.90;;;;;;5051883;28;20067;-88
2021/01/28 02:32:47;;;;;;;0.20;0.20;;;13.00;99.90;;;;;;5068239;28;20070;-89
2021/01/28 02:35:14;;;;;;;0.17;0.17;;;13.00;99.90;;;;;;5051358;28;20083;-89
2021/01/28 02:37:40;;;;;;;0.20;0.20;;;13.00;99.90;;;;;;5050833;28;20033;-89
2021/01/28 02:40:08;;;;;;;0.10;0.10;;;13.00;99.90;;;;;;5060267;28;20029;-89
2021/01/28 02:42:37;;;;;;;0.13;0.13;;;13.00;99.90;;;;;;5048304;28;20021;-89
2021/01/28 02:45:07;;;;;;;0.20;0.20;;;13.00;99.90;;;;;;5069156;28;20033;-89
2021/01/28 02:47:34;;;;;;;0.10;0.10;;;13.10;99.90;;;;;;5068525;28;20028;-89
2021/01/28 02:50:00;;;;;;;3.72;0.73;;;13.10;99.90;;;;;;5066545;28;20027;-90
2021/01/28 02:52:26;;;;;;;0.13;0.13;;;13.10;99.90;;;;;;5050857;28;20028;-89
2021/01/28 02:54:53;;;;;;;0.10;0.10;;;13.10;99.90;;;;;;5064558;28;20494;-89
2021/01/28 02:57:19;;;;;;;0.20;0.20;;;13.10;99.90;;;;;;5050234;28;20081;-89
2021/01/28 02:59:46;;;;;;;0.57;0.57;;;13.10;99.90;;;;;;5069102;28;20489;-89
2021/01/28 03:02:15;;;;;;;;;;;13.10;99.90;;;;;;5068405;28;20565;-89
2021/01/28 03:04:41;;;;;;;0.10;0.10;;;13.00;99.90;;;;;;5069222;28;19916;-88
2021/01/28 03:07:10;;;;;;;0.45;0.45;;;13.00;99.90;;;;;;5068777;28;20162;-88
2021/01/28 03:09:36;;;;;;;0.85;0.75;;;13.10;99.90;;;;;;5069131;28;20111;-88
2021/01/28 03:12:07;;;;;;;0.88;0.77;;;13.10;99.90;;;;;;5068363;28;20036;-89
2021/01/28 03:14:37;;;;;;;0.10;0.10;;;13.00;99.90;;;;;;5049713;28;20524;-88
2021/01/28 03:17:08;;;;;;;0.10;0.10;;;13.00;99.90;;;;;;5050306;28;20029;-89
2021/01/28 03:19:40;;;;;;;0.20;0.20;;;13.10;99.90;;;;;;5068323;28;20039;-89
2021/01/28 03:22:07;;;;;;;0.13;0.13;;;13.00;99.90;;;;;;5050881;28;20064;-89
2021/01/28 03:24:33;;;;;;;;;;;13.00;99.90;;;;;;5068783;28;20035;-89
2021/01/28 03:26:59;;;;;;;0.10;0.10;;;13.00;99.90;;;;;;5050005;28;19908;-89
2021/01/28 03:29:25;;;;;;;0.10;0.10;;;13.10;99.90;;;;;;5059350;28;20032;-89
2021/01/28 03:31:51;;;;;;;0.10;0.10;;;13.00;99.90;;;;;;5062718;28;20512;-88
2021/01/28 03:34:17;;;;;;;0.10;0.10;;;13.10;99.90;;;;;;5068214;28;20033;-89
2021/01/28 03:36:43;;;;;;;0.20;0.20;;;13.00;99.90;;;;;;5068478;28;20767;-89
2021/01/28 03:39:09;;;;;;;0.30;0.30;;;13.00;99.90;;;;;;5068305;28;20071;-89
2021/01/28 03:41:36;;;;;;;0.10;0.10;;;13.00;99.90;;;;;;5050444;28;20516;-89
2021/01/28 03:44:04;;;;;;;2.72;0.93;;;13.00;99.90;;;;;;5068543;28;20032;-89
2021/01/28 03:46:33;;;;;;;1.00;0.40;;;13.00;99.90;;;;;;5060535;28;20021;-89
2021/01/28 03:49:03;;;;;;;0.22;0.22;;;13.00;99.90;;;;;;5067398;28;20025;-89
2021/01/28 03:51:30;;;;;;;0.10;0.10;;;13.00;99.90;;;;;;5058973;28;20056;-89
2021/01/28 03:53:56;;;;;;;0.20;0.20;;;13.00;99.90;;;;;;5050405;28;20742;-90
2021/01/28 03:56:22;;;;;;;0.10;0.10;;;12.90;99.90;;;;;;5068734;28;20100;-89
2021/01/28 03:58:47;;;;;;;0.20;0.20;;;12.90;99.90;;;;;;5068389;28;20078;-90
2021/01/28 04:01:13;;;;;;;0.80;0.80;;;12.90;99.90;;;;;;5068821;28;20096;-89
2021/01/28 04:03:39;;;;;;;0.35;0.35;;;12.90;99.90;;;;;;5068166;28;20028;-90
2021/01/28 04:06:05;;;;;;;0.40;0.40;;;12.90;99.90;;;;;;5065189;28;20036;-90
2021/01/28 04:08:30;;;;;;;0.10;0.08;;;12.90;99.90;;;;;;5063573;28;20033;-89
2021/01/28 04:10:56;;;;;;;0.10;0.10;;;12.90;99.90;;;;;;5063487;28;20470;-89
2021/01/28 04:13:23;;;;;;;0.10;0.10;;;12.90;99.90;;;;;;5049378;28;20024;-89
2021/01/28 04:15:51;;;;;;;0.20;0.20;;;12.90;99.90;;;;;;5067718;28;20032;-89
2021/01/28 04:18:21;;;;;;;0.10;0.10;;;12.90;99.90;;;;;;5067450;28;20025;-89
2021/01/28 04:20:49;;;;;;;0.13;0.13;;;12.80;99.90;;;;;;5050031;28;20055;-90
2021/01/28 04:23:16;;;;;;;0.63;0.63;;;12.80;99.90;;;;;;5072489;28;20032;-90
2021/01/28 04:25:42;;;;;;;0.10;0.10;;;12.80;99.90;;;;;;5070979;28;20025;-89
2021/01/28 04:28:08;;;;;;;1.23;0.52;;;12.70;99.90;;;;;;5072259;28;20529;-89
2021/01/28 04:30:34;;;;;;;0.10;0.10;;;12.70;99.90;;;;;;5071967;28;20048;-89
2021/01/28 04:33:02;;;;;;;0.10;0.10;;;12.70;99.90;;;;;;5074039;28;20056;-89
2021/01/28 04:35:28;;;;;;;0.10;0.10;;;12.60;99.90;;;;;;5053943;28;20147;-89
2021/01/28 04:37:54;;;;;;;0.10;0.10;;;12.60;99.90;;;;;;5072349;28;20103;-89
2021/01/28 04:40:47;;;;;;;0.10;0.10;;;12.60;99.90;;;;;;5071362;28;20035;-89
2021/01/28 04:43:33;;;;;;;0.10;0.10;;;12.60;99.90;;;;;;5053587;28;20133;-89
2021/01/28 04:46:06;;;;;;;0.17;0.17;;;12.70;99.90;;;;;;5068866;28;20025;-88
2021/01/28 04:48:35;;;;;;;0.20;0.20;;;12.70;99.90;;;;;;5071003;28;20049;-89
2021/01/28 04:51:05;;;;;;;2.45;0.90;;;12.70;99.90;;;;;;5071270;28;20035;-89
2021/01/28 04:53:40;;;;;;;0.10;0.10;;;12.70;99.90;;;;;;5053503;28;20032;-89
2021/01/28 04:56:16;;;;;;;0.43;0.30;;;12.80;99.90;;;;;;5070884;28;20082;-89
2021/01/28 04:58:42;;;;;;;0.20;0.20;;;12.80;99.90;;;;;;5071755;28;20025;-90
2021/01/28 05:01:08;;;;;;;0.10;0.10;;;12.80;99.90;;;;;;5053678;28;20516;-90
2021/01/28 05:03:42;;;;;;;0.10;0.10;;;12.80;99.90;;;;;;5071698;28;20032;-90
2021/01/28 05:06:08;;;;;;;0.10;0.10;;;12.80;99.90;;;;;;5071690;28;20067;-88
2021/01/28 05:08:34;;;;;;;0.20;0.20;;;12.90;99.90;;;;;;5071297;28;20032;-89
2021/01/28 05:11:00;;;;;;;0.38;0.38;;;12.90;99.90;;;;;;5070361;28;20036;-91
2021/01/28 05:13:38;;;;;;;0.57;0.57;;;12.90;99.90;;;;;;5053459;28;20033;-90
2021/01/28 05:16:37;;;;;;;0.85;0.85;;;12.90;99.90;;;;;;5072897;28;20078;-92
2021/01/28 05:19:11;;;;;;;0.75;0.75;;;12.90;99.90;;;;;;5042564;28;20053;-91
2021/01/28 05:21:46;;;;;;;3.35;3.10;;;12.90;99.90;;;;;;5071353;28;20059;-91
2021/01/28 05:24:38;;;;;;;5.60;2.47;;;12.90;99.90;;;;;;5053335;28;20490;-89
2021/01/28 05:27:14;;;;;;;0.10;0.10;;;12.90;99.90;;;;;;5067976;28;20024;-89
2021/01/28 05:29:41;;;;;;;0.68;0.68;;;12.90;99.90;;;;;;5053242;28;20032;-89
2021/01/28 05:32:15;;;;;;;0.20;0.20;;;12.90;99.90;;;;;;5070496;28;20029;-90
2021/01/28 05:34:41;;;;;;;1.08;0.65;;;12.90;99.90;;;;;;5053092;28;20054;-91
2021/01/28 05:37:12;;;;;;;0.10;0.10;;;12.90;99.90;;;;;;5053203;28;20025;-90
2021/01/28 05:39:40;;;;;;;0.60;0.30;;;12.90;99.90;;;;;;5053170;28;20032;-88
2021/01/28 05:42:29;;;;;;;0.13;0.13;;;12.90;99.90;;;;;;5052941;28;20256;-88
2021/01/28 05:44:57;;;;;;;1.10;1.00;;;12.90;99.90;;;;;;5060496;28;20115;-88
2021/01/28 05:47:27;;;;;;;0.30;0.30;;;12.90;99.90;;;;;;5070058;28;20451;-87
2021/01/28 05:50:11;;;;;;;0.30;0.30;;;12.90;99.90;;;;;;5053035;28;20040;-88
2021/01/28 05:52:36;;;;;;;0.55;0.55;;;12.90;99.90;;;;;;5069664;28;20024;-89
2021/01/28 05:55:11;;;;;;;0.40;0.40;;;12.90;99.90;;;;;;5075619;28;20511;-88
2021/01/28 05:57:49;;;;;;;0.30;0.30;;;12.90;99.90;;;;;;5073999;28;20020;-89
2021/01/28 06:00:36;;;;;;;0.20;0.20;;;12.90;99.90;;;;;;5070766;28;20024;-90
2021/01/28 06:03:33;;;;;;;0.10;0.10;;;12.90;99.90;;;;;;5070638;28;20091;-89
2021/01/28 06:06:20;;;;;;;0.00;0.00;;;12.90;99.90;;;;;;5070723;28;20025;-89
2021/01/28 06:08:59;;;;;;;0.10;0.10;;;12.90;99.90;;;;;;5038795;28;20139;-89
2021/01/28 06:11:58;;;;;;;0.30;0.30;;;12.90;99.90;;;;;;5070035;28;20027;-89
2021/01/28 06:14:32;;;;;;;0.13;0.13;;;12.90;99.90;;;;;;5070218;28;20028;-89
2021/01/28 06:17:17;;;;;;;0.52;0.40;;;12.90;99.90;;;;;;5070827;28;20060;-89
2021/01/28 06:20:07;;;;;;;0.10;0.10;;;12.90;99.90;;;;;;5053040;28;20059;-89
2021/01/28 06:23:00;;;;;;;0.35;0.30;;;12.90;99.90;;;;;;5057829;28;20027;-89
2021/01/28 06:25:54;;;;;;;0.10;0.10;;;12.90;99.90;;;;;;5052220;28;20082;-90
2021/01/28 06:28:20;;;;;;;0.52;0.38;;;12.90;99.90;;;;;;5070502;28;20024;-89
2021/01/28 06:31:00;;;;;;;0.40;0.40;;;12.90;99.90;;;;;;5069905;28;20032;-87
2021/01/28 06:33:36;;;;;;;2.03;1.33;;;12.90;99.90;;;;;;5051459;28;20095;-89
2021/01/28 06:36:13;;;;;;;0.50;0.50;;;12.90;99.90;;;;;;5069476;28;20021;-89
2021/01/28 06:39:00;;;;;;;2.22;1.20;;;12.90;99.90;;;;;;5069625;28;20033;-88
2021/01/28 06:41:31;;;;;;;0.20;0.20;;;12.90;99.90;;;;;;5068848;28;20052;-90
2021/01/28 06:44:09;;;;;;;3.55;2.13;;;12.90;99.90;;;;;;5050755;28;20025;-88
2021/01/28 06:46:49;;;;;;;1.55;1.55;;;12.90;99.90;;;;;;5069177;28;20095;-88
2021/01/28 06:49:27;;;;;;;1.77;0.98;;;12.90;99.90;;;;;;5066770;28;20515;-89
2021/01/28 06:51:55;;;;;;;1.27;1.17;;;12.90;99.90;;;;;;5050883;28;20025;-88
2021/01/28 06:54:41;;;;;;;3.38;1.83;;;12.90;99.90;;;;;;5069283;28;20025;-88
2021/01/28 06:57:28;;;;;;;0.65;0.65;;;12.90;99.90;;;;;;5069560;28;20020;-90
2021/01/28 07:00:19;;;;;;;0.32;0.32;;;12.90;99.90;;;;;;5069446;28;20181;-89
2021/01/28 07:03:14;;;;;;;0.98;0.98;;;12.90;99.90;;;;;;5069205;28;20021;-90
2021/01/28 07:06:01;;;;;;;0.85;0.85;;;12.90;99.90;;;;;;5058166;28;20099;-90
2021/01/28 07:08:45;;;;;;;0.95;0.35;;;12.90;99.90;;;;;;5069213;28;20021;-90
2021/01/28 07:11:34;;;;;;;0.40;0.40;;;12.90;99.90;;;;;;5033440;28;20040;-88
2021/01/28 07:14:02;;;;;;;0.85;0.85;;;12.90;99.90;;;;;;5067911;28;20036;-88
2021/01/28 07:16:37;;;;;;;0.73;0.73;;;12.90;99.90;;;;;;5059599;28;20021;-89
2021/01/28 07:19:20;;;;;;;1.00;0.93;;;12.90;99.90;;;;;;5072222;28;20090;-88
2021/01/28 07:21:49;;;;;;;0.20;0.20;;;12.90;99.90;;;;;;5050748;28;20024;-89
2021/01/28 07:24:34;;;;;;;0.20;0.20;;;12.90;99.90;;;;;;5068528;28;20378;-88
2021/01/28 07:27:05;;;;;;;0.88;0.88;;;12.90;99.90;;;;;;5068687;28;20054;-88
2021/01/28 07:29:30;;;;;;;11.85;2.47;;;12.90;99.90;;;;;;5050797;28;20029;-88
2021/01/28 07:32:08;;;;;;;0.60;0.60;;;12.90;99.90;;;;;;5068999;28;20078;-88
2021/01/28 07:34:34;;;;;;;0.20;0.20;;;12.80;99.90;;;;;;5050612;28;20059;-88
2021/01/28 07:37:18;;;;;;;0.33;0.33;;;12.90;99.90;;;;;;5068672;28;20028;-88
2021/01/28 07:39:44;;;;;;;0.60;0.60;;;12.90;99.90;;;;;;5055040;28;20032;-89
2021/01/28 07:42:16;;;;;;;0.20;0.20;;;12.90;99.90;;;;;;5050497;28;20070;-89
2021/01/28 07:45:41;;;;;;;0.57;0.57;;;12.90;99.90;;;;;;5051810;28;20115;-88
2021/01/28 07:48:25;;;;;;;0.10;0.10;;;12.90;99.90;;;;;;4953500;28;20051;-87
2021/01/28 07:51:30;;;;;;;0.20;0.20;;;12.90;99.90;;;;;;4946841;29;20063;-87
2021/01/28 07:53:55;;;;;;;0.20;0.20;;;13.00;99.90;;;;;;4948104;29;20047;-87
2021/01/28 07:56:49;;;;;;;0.13;0.13;;;13.00;99.90;;;;;;4931368;29;20027;-88
2021/01/28 07:59:32;;;;;;;0.10;0.10;;;13.00;99.90;;;;;;4938289;29;20090;-87
2021/01/28 08:02:26;;;;;;;2.70;1.88;;;13.00;99.90;;;;;;4948401;29;20031;-86
2021/01/28 08:05:04;;;;;;;10.43;7.40;;;13.00;99.90;;;;;;4947280;29;20070;-87
2021/01/28 08:07:36;;;;;;;2.05;1.90;;;13.00;99.90;;;;;;4947646;29;20032;-87
2021/01/28 08:10:06;;;;;;;0.30;0.30;;;13.00;99.90;;;;;;4947135;29;20074;-87
2021/01/28 08:12:45;;;;;;;0.22;0.22;;;13.00;99.90;;;;;;4947469;29;20124;-88
2021/01/28 08:15:17;;;;;;;0.30;0.30;;;13.00;99.90;;;;;;4947179;29;20113;-88
2021/01/28 08:17:43;;;;;;;0.57;0.57;;;13.00;99.90;;;;;;4928905;29;20031;-88
2021/01/28 08:20:26;;;;;;;0.50;0.50;;;13.00;99.90;;;;;;4944045;29;20133;-88
2021/01/28 08:23:00;;;;;;;0.10;0.10;;;13.00;99.90;;;;;;4940321;28;20037;-88
2021/01/28 08:25:30;;;;;;;0.20;0.20;;;13.00;99.90;;;;;;5062744;28;20054;-87
2021/01/28 08:28:06;;;;;;;0.82;0.82;;;13.10;99.90;;;;;;5050730;28;20028;-88
2021/01/28 08:30:32;;;;;;;0.53;0.53;;;13.10;99.90;;;;;;5067920;28;20016;-87
2021/01/28 08:33:00;;;;;;;0.93;0.63;;;13.10;99.90;;;;;;5050418;28;20025;-87
2021/01/28 08:35:37;;;;;;;0.45;0.35;;;13.10;99.90;;;;;;5067980;28;20485;-88
2021/01/28 08:38:16;;;;;;;0.40;0.40;;;13.10;99.90;;;;;;5068538;28;20031;-87
2021/01/28 08:40:47;;;;;;;0.50;0.50;;;13.10;99.90;;;;;;5068357;28;20486;-88
2021/01/28 08:43:19;;;;;;;0.20;0.20;;;13.10;99.90;;;;;;5068435;28;20043;-88
2021/01/28 08:45:46;;;;;;;0.10;0.10;;;13.10;99.90;;;;;;5068338;28;20035;-88
2021/01/28 08:48:15;;;;;;;0.60;0.55;;;13.20;99.90;;;;;;5068376;28;20509;-88
2021/01/28 08:50:45;;;;;;;13.35;3.20;;;13.20;99.90;;;;;;5049919;28;20035;-88
2021/01/28 08:53:22;;;;;;;0.10;0.10;;;13.20;99.90;;;;;;5068147;28;20029;-88
2021/01/28 08:55:49;;;;;;;0.17;0.17;;;13.20;99.90;;;;;;5068294;28;20024;-88
2021/01/28 08:58:30;;;;;;;0.43;0.20;;;13.20;99.90;;;;;;5068316;28;20052;-88
2021/01/28 09:01:02;;;;;;;2.63;1.45;;;13.20;99.90;;;;;;5050236;28;20036;-88
2021/01/28 09:03:36;;;;;;;0.20;0.20;;;13.20;99.90;;;;;;5067985;28;20023;-88
2021/01/28 09:06:02;;;;;;;0.65;0.30;;;13.20;99.90;;;;;;5050077;28;20392;-88
2021/01/28 09:08:34;;;;;;;0.10;0.10;;;13.20;99.90;;;;;;5070876;28;20023;-88
2021/01/28 09:11:25;;;;;;;1.65;0.73;;;13.20;99.90;;;;;;5053647;28;20039;-88
2021/01/28 09:14:04;;;;;;;0.10;0.10;;;13.20;99.90;;;;;;5058107;28;20111;-87
2021/01/28 09:16:30;;;;;;;0.10;0.10;;;13.30;99.90;;;;;;5053731;28;20025;-88
2021/01/28 09:19:09;;;;;;;0.70;0.70;;;13.30;99.90;;;;;;5057710;28;20012;-88
2021/01/28 09:21:40;;;;;;;0.10;0.10;;;13.40;99.90;;;;;;5057776;28;20078;-88
2021/01/28 09:24:22;;;;;;;0.10;0.10;;;13.40;99.90;;;;;;5073799;28;20032;-88
2021/01/28 09:27:03;;;;;;;0.15;0.15;;;13.40;99.90;;;;;;5071706;28;20043;-87
2021/01/28 09:29:37;;;;;;;0.10;0.10;;;13.40;99.90;;;;;;5053599;28;20882;-88
2021/01/28 09:32:27;;;;;;;0.35;0.35;;;13.40;99.90;;;;;;5053363;28;20107;-88
2021/01/28 09:35:15;;;;;;;0.47;0.47;;;13.50;99.90;;;;;;5070879;28;20585;-87
2021/01/28 09:37:47;;;;;;;0.20;0.20;;;13.40;99.90;;;;;;5057636;28;20024;-87
2021/01/28 09:40:29;;;;;;;0.20;0.20;;;13.50;99.90;;;;;;5071270;28;20676;-88
2021/01/28 09:43:25;;;;;;;0.10;0.10;;;13.50;99.90;;;;;;5071328;28;20440;-88
2021/01/28 09:46:00;;;;;;;0.10;0.10;;;13.50;99.90;;;;;;5053045;28;20112;-86
2021/01/28 09:48:26;;;;;;;0.55;0.55;;;13.60;99.90;;;;;;5071032;28;20109;-88
2021/01/28 09:50:52;;;;;;;0.13;0.13;;;13.60;99.90;;;;;;5052689;28;20044;-88
2021/01/28 09:53:17;;;;;;;0.17;0.17;;;13.60;99.90;;;;;;5053338;28;20102;-88
2021/01/28 09:55:43;;;;;;;0.20;0.20;;;13.60;99.90;;;;;;5070521;28;20035;-87
2021/01/28 09:58:09;;;;;;;1.45;0.73;;;13.60;99.90;;;;;;5071050;28;20025;-88
2021/01/28 10:00:35;;;;;;;0.43;0.43;;;13.70;99.90;;;;;;5070636;28;20020;-87
2021/01/28 10:03:06;;;;;;;0.57;0.57;;;13.60;99.90;;;;;;5070370;28;20078;-88
2021/01/28 10:05:35;;;;;;;0.30;0.30;;;13.60;99.90;;;;;;5070312;28;20021;-88
2021/01/28 10:08:03;;;;;;;0.28;0.28;;;13.60;99.90;;;;;;5070555;28;20102;-88
2021/01/28 10:10:31;;;;;;;0.10;0.10;;;13.50;99.90;;;;;;5070541;28;21312;-88
2021/01/28 10:12:59;;;;;;;0.10;0.10;;;13.50;99.90;;;;;;5070586;28;20067;-87
2021/01/28 10:15:26;;;;;;;0.17;0.17;;;13.50;99.90;;;;;;5069982;28;20028;-87
2021/01/28 10:17:53;;;;;;;0.20;0.20;;;13.50;99.90;;;;;;5070036;28;20028;-87
2021/01/28 10:20:20;;;;;;;1.73;1.50;;;13.60;99.90;;;;;;5052093;28;20475;-87
2021/01/28 10:22:47;;;;;;;0.20;0.20;;;13.60;99.90;;;;;;5070098;28;20021;-87
2021/01/28 10:25:13;;;;;;;;;;;13.60;99.90;;;;;;5070230;28;20498;-88
2021/01/28 10:27:39;;;;;;;0.95;0.95;;;13.50;99.90;;;;;;5070228;28;20331;-87
2021/01/28 10:30:08;;;;;;;0.68;0.68;;;13.60;99.90;;;;;;5052472;28;20032;-88
2021/01/28 10:32:34;;;;;;;0.30;0.30;;;13.60;99.90;;;;;;5052369;28;20032;-88
2021/01/28 10:35:00;;;;;;;1.55;0.85;;;13.60;99.90;;;;;;5070242;28;20037;-88
2021/01/28 10:37:26;;;;;;;0.60;0.60;;;13.70;99.90;;;;;;5070476;28;20016;-88
2021/01/28 10:39:52;;;;;;;0.67;0.67;;;13.70;99.90;;;;;;5070148;28;20024;-88
2021/01/28 10:42:24;;;;;;;0.67;0.67;;;13.80;99.90;;;;;;5070040;28;20056;-88
2021/01/28 10:44:50;;;;;;;1.13;1.13;;;13.70;99.90;;;;;;5069724;28;20775;-87
2021/01/28 10:47:16;;;;;;;2.67;1.38;;;13.80;99.90;;;;;;5070034;28;20028;-88
2021/01/28 10:49:42;;;;;;;0.27;0.27;;;13.90;99.90;;;;;;5069782;28;20677;-88
2021/01/28 10:52:09;;;;;;;0.30;0.30;;;13.90;99.90;;;;;;5069871;28;20082;-88
2021/01/28 10:54:34;;;;;;;2.20;0.87;;;13.90;99.90;;;;;;5051569;28;20656;-88
2021/01/28 10:57:00;;;;;;;0.35;0.35;;;13.80;99.90;;;;;;5069564;28;20040;-88
2021/01/28 10:59:26;;;;;;;1.05;0.75;;;13.80;99.90;;;;;;5047933;28;20021;-88
2021/01/28 11:01:52;;;;;;;2.53;1.35;;;13.80;99.90;;;;;;5036860;28;20028;-88
2021/01/28 11:04:18;;;;;;;1.95;1.08;;;13.80;99.90;;;;;;5069546;28;20036;-88
2021/01/28 11:06:43;;;;;;;1.42;1.33;;;13.90;99.90;;;;;;5069372;28;20032;-88
2021/01/28 11:09:09;;;;;;;1.13;1.08;;;13.90;99.90;;;;;;5050946;28;20044;-88
2021/01/28 11:11:35;;;;;;;0.30;0.30;;;13.90;99.90;;;;;;5067448;28;20028;-88
2021/01/28 11:14:02;;;;;;;0.20;0.20;;;13.90;99.90;;;;;;5056461;28;20554;-88
2021/01/28 11:16:28;;;;;;;0.17;0.17;;;14.00;99.90;;;;;;5069689;28;20818;-88
2021/01/28 11:18:56;;;;;;;0.10;0.10;;;14.00;99.90;;;;;;5068350;28;20028;-88
2021/01/28 11:21:22;;;;;;;0.10;0.10;;;13.90;99.90;;;;;;5069203;28;20029;-88
2021/01/28 11:23:49;;;;;;;0.10;0.10;;;14.00;99.90;;;;;;5069169;28;20023;-88
2021/01/28 11:26:16;;;;;;;0.20;0.20;;;13.90;99.90;;;;;;5068817;28;20036;-88
2021/01/28 11:28:43;;;;;;;0.70;0.45;;;13.90;99.90;;;;;;5051135;28;20159;-88
2021/01/28 11:31:09;;;;;;;0.30;0.30;;;13.90;99.90;;;;;;5068493;28;20017;-88
2021/01/28 11:33:35;;;;;;;0.10;0.10;;;13.90;99.90;;;;;;5050744;28;20550;-88
2021/01/28 11:36:02;;;;;;;0.30;0.30;;;13.90;99.90;;;;;;5061802;28;20137;-88
2021/01/28 11:38:28;;;;;;;0.57;0.32;;;13.80;99.90;;;;;;5043956;28;20028;-88
2021/01/28 11:40:54;;;;;;;0.25;0.25;;;13.90;99.90;;;;;;5068591;28;20415;-88
2021/01/28 11:43:20;;;;;;;0.10;0.10;;;14.00;99.90;;;;;;5068779;28;20145;-88
2021/01/28 11:45:46;;;;;;;0.10;0.10;;;14.00;99.90;;;;;;5065807;28;20029;-89
2021/01/28 11:48:12;;;;;;;0.20;0.20;;;14.10;99.90;;;;;;5042551;28;20407;-89
2021/01/28 11:50:38;;;;;;;0.10;0.10;;;14.00;99.90;;;;;;5050762;28;20035;-88
2021/01/28 11:53:04;;;;;;;0.05;0.05;;;14.00;99.90;;;;;;5068522;28;20558;-88
2021/01/28 11:55:30;;;;;;;1.13;0.85;;;14.10;99.90;;;;;;5050178;28;20039;-87
2021/01/28 11:57:57;;;;;;;0.20;0.20;;;14.10;99.90;;;;;;5050376;28;20029;-88
2021/01/28 12:00:24;;;;;;;0.20;0.20;;;14.10;99.90;;;;;;5068550;28;20463;-88
2021/01/28 12:02:50;;;;;;;;;;;14.00;99.90;;;;;;5068820;28;20099;-88
2021/01/28 12:05:20;;;;;;;0.10;0.10;;;13.90;99.90;;;;;;5068393;28;19987;-88
2021/01/28 12:07:46;;;;;;;0.52;0.47;;;13.90;99.90;;;;;;5050687;28;20112;-88
2021/01/28 12:10:16;;;;;;;0.00;0.00;;;14.00;99.90;;;;;;5054171;28;20107;-88
2021/01/28 12:12:42;;;;;;;0.63;0.63;;;14.00;99.90;;;;;;5068456;28;20429;-88
2021/01/28 12:15:08;;;;;;;0.65;0.65;;;14.00;99.90;;;;;;5068255;28;20058;-88
2021/01/28 12:17:34;;;;;;;0.30;0.30;;;14.00;99.90;;;;;;5068702;28;20086;-88
2021/01/28 12:20:01;;;;;;;0.43;0.40;;;13.90;99.90;;;;;;5068291;28;20976;-88
2021/01/28 12:22:26;;;;;;;1.00;0.30;;;14.00;99.90;;;;;;5068357;28;20265;-88
2021/01/28 12:24:52;;;;;;;0.10;0.10;;;13.90;99.90;;;;;;5068512;28;20266;-88
2021/01/28 12:27:18;;;;;;;0.20;0.20;;;13.90;99.90;;;;;;5068029;28;20047;-88
2021/01/28 12:29:44;;;;;;;0.10;0.10;;;13.90;99.90;;;;;;5050384;28;20113;-89
2021/01/28 12:32:10;;;;;;;0.25;0.25;;;13.90;99.90;;;;;;5067958;28;20074;-88
2021/01/28 12:34:37;;;;;;;0.10;0.10;;;13.80;99.90;;;;;;5068273;28;20032;-88
2021/01/28 12:37:04;;;;;;;0.10;0.10;;;13.80;99.90;;;;;;5050139;28;20032;-88
2021/01/28 12:39:30;;;;;;;0.30;0.30;;;13.80;99.90;;;;;;5049775;28;20532;-88
2021/01/28 12:41:56;;;;;;;0.32;0.32;;;13.90;99.90;;;;;;5068472;28;20052;-88
2021/01/28 12:44:22;;;;;;;0.10;0.10;;;13.80;99.90;;;;;;5039579;28;20029;-88
2021/01/28 12:46:48;;;;;;;0.43;0.43;;;13.80;99.90;;;;;;5072104;28;20025;-88
2021/01/28 12:49:14;;;;;;;0.20;0.20;;;13.80;99.90;;;;;;5053827;28;20039;-88
2021/01/28 12:51:40;;;;;;;0.10;0.10;;;13.80;99.90;;;;;;5072069;28;20032;-89
2021/01/28 12:54:06;;;;;;;0.10;0.10;;;13.80;99.90;;;;;;5072006;28;20478;-88
2021/01/28 12:56:32;;;;;;;0.27;0.27;;;13.80;99.90;;;;;;5071796;28;20027;-88
2021/01/28 12:58:58;;;;;;;0.30;0.30;;;13.80;99.90;;;;;;5071901;28;20025;-88
2021/01/28 13:01:24;;;;;;;0.43;0.43;;;13.80;99.90;;;;;;5039257;28;20107;-89
2021/01/28 13:03:50;;;;;;;0.10;0.10;;;13.90;99.90;;;;;;5053947;28;20024;-89
2021/01/28 13:06:15;;;;;;;0.10;0.10;;;13.90;99.90;;;;;;5071818;28;20111;-89
2021/01/28 13:08:42;;;;;;;0.10;0.10;;;13.90;99.90;;;;;;5053312;28;20464;-89